Time;durP1;ratioP1;P1;durP2;ratioP2;P2;SDS_P1;SDS_P2;PMS_P1;PMS_P2;Temp;Humidity;BMP_temperature;BMP_pressure;BME280_temperature;BME280_humidity;BME280_pressure;Samples;Min_cycle;Max_cycle;Signal;HPM_P1;HPM_P2
2024/02/09 00:00:07;;;;;;;4.60;2.00;;;;;;;14.61;70.08;100288.39;106518;1285;59125;-60
2024/02/09 00:02:33;;;;;;;;;;;;;;;14.61;70.01;100294.96;106846;1285;73542;-60
2024/02/09 00:04:58;;;;;;;2.80;1.80;;;;;;;14.60;69.91;100301.27;106878;1285;59151;-60
2024/02/09 00:07:24;;;;;;;3.70;2.20;;;;;;;14.60;69.92;100297.58;106853;1284;59081;-60
2024/02/09 00:09:49;;;;;;;7.70;2.60;;;;;;;14.59;69.91;100300.58;106745;1285;59145;-60
2024/02/09 00:12:20;;;;;;;4.40;2.00;;;;;;;14.59;69.83;100301.17;106868;1285;59051;-60
2024/02/09 00:14:47;;;;;;;4.00;2.10;;;;;;;14.58;69.76;100295.11;106826;1284;60529;-60
2024/02/09 00:17:13;;;;;;;4.80;2.30;;;;;;;14.58;69.70;100294.40;106849;1285;58880;-60
2024/02/09 00:19:38;;;;;;;3.90;2.00;;;;;;;14.57;69.64;100291.55;106814;1288;59050;-60
2024/02/09 00:22:04;;;;;;;3.80;2.00;;;;;;;14.57;69.59;100292.48;106889;1285;59080;-60
2024/02/09 00:24:31;;;;;;;5.30;2.00;;;;;;;14.57;69.50;100285.17;106848;1284;59149;-60
2024/02/09 00:27:00;;;;;;;4.40;2.00;;;;;;;14.56;69.51;100274.75;106859;1284;58962;-60
2024/02/09 00:29:26;;;;;;;4.40;2.20;;;;;;;14.56;69.44;100266.50;106859;1284;61130;-60
2024/02/09 00:31:55;;;;;;;4.60;2.40;;;;;;;14.55;69.33;100281.21;106879;1284;75687;-60
2024/02/09 00:34:21;;;;;;;5.80;2.30;;;;;;;14.55;69.29;100275.54;106868;1285;74293;-60
2024/02/09 00:36:55;;;;;;;3.00;1.80;;;;;;;14.54;69.24;100268.54;106849;1285;59407;-60
2024/02/09 00:39:21;;;;;;;4.40;2.20;;;;;;;14.54;69.20;100273.86;106797;1284;60272;-60
2024/02/09 00:41:47;;;;;;;5.90;2.30;;;;;;;14.53;69.09;100270.35;106525;1285;59103;-60
2024/02/09 00:44:13;;;;;;;3.50;1.70;;;;;;;14.53;69.05;100254.73;106882;1285;59069;-60
2024/02/09 00:46:42;;;;;;;4.30;2.00;;;;;;;14.52;68.99;100251.75;106850;1284;59165;-60
2024/02/09 00:49:09;;;;;;;4.00;1.90;;;;;;;14.52;69.00;100261.30;106863;1284;73266;-60
2024/02/09 00:51:35;;;;;;;5.70;2.50;;;;;;;14.52;68.90;100254.46;106791;1284;60175;-60
2024/02/09 00:54:01;;;;;;;5.30;2.20;;;;;;;14.51;68.88;100247.59;106838;1284;59406;-60
2024/02/09 00:56:28;;;;;;;4.80;2.20;;;;;;;14.51;68.87;100246.34;106850;1285;59016;-60
2024/02/09 00:58:56;;;;;;;3.60;2.00;;;;;;;14.51;68.76;100247.31;106872;1284;59052;-60
2024/02/09 01:01:22;;;;;;;4.60;2.10;;;;;;;14.51;68.73;100248.89;106868;1285;73341;-60
2024/02/09 01:03:47;;;;;;;3.80;2.00;;;;;;;14.50;68.64;100232.45;106639;1285;59031;-60
2024/02/09 01:06:13;;;;;;;3.50;2.00;;;;;;;14.50;68.57;100223.99;106861;1285;59046;-60
2024/02/09 01:08:39;;;;;;;4.00;2.00;;;;;;;14.50;68.48;100232.73;106894;1285;59457;-60
2024/02/09 01:11:08;;;;;;;3.90;2.00;;;;;;;14.50;68.48;100236.15;106865;1284;59038;-60
2024/02/09 02:46:19;;;;;;;3.40;1.70;;;;;;;14.34;66.85;100213.27;106885;1285;59011;-60
2024/02/09 03:05:20;;;;;;;2.80;1.70;;;;;;;14.32;66.46;100185.66;106822;1284;59071;-60
2024/02/09 03:07:48;;;;;;;3.70;1.70;;;;;;;14.32;66.52;100193.46;106853;1285;61138;-60
2024/02/09 03:10:13;;;;;;;2.10;1.70;;;;;;;14.32;66.49;100192.77;106895;1285;74346;-60
2024/02/09 03:12:39;;;;;;;5.00;1.80;;;;;;;14.31;66.44;100176.85;106899;1284;59260;-60
2024/02/09 03:15:09;;;;;;;4.40;1.90;;;;;;;14.31;66.38;100183.13;106894;1285;59285;-60
2024/02/09 03:17:37;;;;;;;3.30;2.20;;;;;;;14.30;66.31;100194.10;106852;1284;60911;-60
2024/02/09 03:20:04;;;;;;;3.20;1.90;;;;;;;14.30;66.38;100194.86;106879;1284;59901;-59
2024/02/09 03:22:30;;;;;;;3.70;1.90;;;;;;;14.30;66.31;100197.30;106860;1285;75228;-60
2024/02/09 03:25:01;;;;;;;3.40;1.90;;;;;;;14.30;66.20;100194.98;106887;1284;59033;-60
2024/02/09 03:27:31;;;;;;;4.60;2.00;;;;;;;14.29;66.12;100191.30;106838;1284;71519;-60
2024/02/09 03:29:59;;;;;;;3.90;1.70;;;;;;;14.29;66.11;100189.89;106851;1284;60125;-60
2024/02/09 03:32:26;;;;;;;2.70;1.70;;;;;;;14.28;66.16;100191.63;106893;1284;61644;-60
2024/02/09 03:34:52;;;;;;;4.00;1.80;;;;;;;14.28;65.99;100198.04;106922;1284;74485;-60
2024/02/09 03:37:17;;;;;;;3.80;1.80;;;;;;;14.28;66.06;100203.30;106886;1284;59111;-60
2024/02/09 03:39:43;;;;;;;3.30;1.70;;;;;;;14.27;66.10;100206.08;106838;1285;59030;-60
2024/02/09 03:42:08;;;;;;;4.80;1.80;;;;;;;14.28;66.01;100204.77;106890;1284;59009;-60
2024/02/09 03:44:33;;;;;;;4.20;2.00;;;;;;;14.27;65.95;100201.58;106771;1285;59479;-60
2024/02/09 03:46:59;;;;;;;4.80;1.80;;;;;;;14.27;65.98;100197.13;106916;1285;59079;-60
2024/02/09 03:49:25;;;;;;;3.30;1.90;;;;;;;14.27;65.98;100196.64;106507;1285;59156;-60
2024/02/09 03:51:50;;;;;;;3.40;1.60;;;;;;;14.26;65.87;100192.09;106607;1285;59075;-60
2024/02/09 03:54:16;;;;;;;3.70;1.80;;;;;;;14.26;65.89;100191.34;106846;1284;59096;-60
2024/02/09 03:56:41;;;;;;;3.80;1.70;;;;;;;14.26;65.79;100188.30;106935;1284;59163;-60
2024/02/09 03:59:06;;;;;;;4.50;2.20;;;;;;;14.25;65.80;100175.79;106826;1284;59090;-61
2024/02/09 04:01:33;;;;;;;3.70;1.80;;;;;;;14.24;65.81;100171.20;106841;1285;59074;-60
2024/02/09 04:03:59;;;;;;;3.50;1.80;;;;;;;14.25;65.65;100179.75;106871;1285;59017;-60
2024/02/09 04:06:25;;;;;;;2.50;1.60;;;;;;;14.25;65.70;100182.90;106916;1284;59079;-60
2024/02/09 04:08:51;;;;;;;3.30;1.80;;;;;;;14.23;65.70;100177.39;106835;1285;59104;-60
2024/02/09 04:11:24;;;;;;;5.20;1.80;;;;;;;14.23;65.64;100178.48;106862;1284;59054;-60
2024/02/09 04:13:49;;;;;;;3.40;1.70;;;;;;;14.23;65.58;100172.96;106841;1285;61337;-60
2024/02/09 04:16:18;;;;;;;3.30;1.60;;;;;;;14.23;65.58;100173.17;106892;1284;59068;-60
2024/02/09 04:18:45;;;;;;;2.70;1.50;;;;;;;14.22;65.53;100171.52;106870;1284;75488;-60
2024/02/09 04:21:10;;;;;;;4.00;2.00;;;;;;;14.21;65.44;100165.51;106896;1284;59058;-60
2024/02/09 04:23:36;;;;;;;3.10;1.80;;;;;;;14.20;65.43;100160.09;106702;1285;59501;-60
2024/02/09 04:26:02;;;;;;;6.30;2.00;;;;;;;14.20;65.45;100160.70;106867;1284;59009;-60
2024/02/09 04:28:28;;;;;;;3.60;1.70;;;;;;;14.20;65.42;100166.17;106703;1285;59179;-60
2024/02/09 04:30:54;;;;;;;3.90;1.70;;;;;;;14.20;65.39;100173.05;106898;1284;59410;-60
2024/02/09 04:33:19;;;;;;;3.60;2.00;;;;;;;14.19;65.37;100173.89;106937;1286;59067;-60
2024/02/09 04:35:45;;;;;;;3.70;2.00;;;;;;;14.19;65.31;100173.19;106836;1284;61421;-60
2024/02/09 04:38:12;;;;;;;3.20;1.50;;;;;;;14.19;65.26;100167.50;106879;1285;58968;-60
2024/02/09 04:40:38;;;;;;;4.20;2.30;;;;;;;14.18;65.28;100159.05;106843;1284;59428;-60
2024/02/09 04:43:07;;;;;;;3.50;1.80;;;;;;;14.18;65.31;100154.92;106871;1284;59408;-60
2024/02/09 04:45:33;;;;;;;4.50;2.30;;;;;;;14.17;65.15;100152.71;106864;1284;72807;-60
2024/02/09 04:47:58;;;;;;;4.20;1.90;;;;;;;14.17;65.13;100152.45;106906;1284;58966;-60
2024/02/09 04:50:24;;;;;;;3.50;1.80;;;;;;;14.17;65.12;100153.27;106916;1284;59360;-60
2024/02/09 04:52:50;;;;;;;3.20;1.70;;;;;;;14.16;65.09;100162.01;106910;1284;59036;-60
2024/02/09 04:55:15;;;;;;;3.90;1.80;;;;;;;14.16;65.05;100164.40;106864;1284;59122;-60
2024/02/09 04:57:44;;;;;;;4.40;2.20;;;;;;;14.16;64.97;100167.76;106884;1284;59040;-60
2024/02/09 05:00:10;;;;;;;4.30;1.90;;;;;;;14.15;64.98;100167.77;106744;1285;61609;-60
2024/02/09 05:02:43;;;;;;;5.40;2.10;;;;;;;14.15;65.00;100165.16;106904;1284;59093;-60
2024/02/09 05:05:09;;;;;;;2.90;1.70;;;;;;;14.14;64.95;100154.88;106942;1285;73258;-60
2024/02/09 05:07:34;;;;;;;4.20;2.00;;;;;;;14.14;64.87;100148.55;106911;1285;59007;-60
2024/02/09 05:10:00;;;;;;;4.10;1.90;;;;;;;14.13;64.84;100142.38;106902;1284;59168;-60
2024/02/09 05:12:25;;;;;;;3.60;2.10;;;;;;;14.13;64.84;100140.77;106877;1284;59037;-60
2024/02/09 05:14:54;;;;;;;4.90;2.10;;;;;;;14.13;64.83;100146.77;106890;1284;59555;-60
2024/02/09 05:17:20;;;;;;;3.70;2.10;;;;;;;14.12;64.74;100143.31;106845;1284;72536;-60
2024/02/09 05:19:45;;;;;;;3.80;2.10;;;;;;;14.11;64.73;100147.44;106896;1284;59005;-60
2024/02/09 05:22:11;;;;;;;3.60;2.00;;;;;;;14.11;64.71;100147.34;106896;1284;59080;-60
2024/02/09 05:24:37;;;;;;;4.20;2.10;;;;;;;14.10;64.76;100148.11;106865;1284;58986;-60
2024/02/09 05:27:02;;;;;;;4.60;2.30;;;;;;;14.09;64.68;100145.36;106869;1284;59055;-60
2024/02/09 05:29:27;;;;;;;4.10;2.00;;;;;;;14.09;64.62;100151.21;106927;1284;59057;-60
2024/02/09 05:31:56;;;;;;;3.20;1.90;;;;;;;14.09;64.65;100150.52;106910;1284;59044;-60
2024/02/09 05:34:21;;;;;;;5.70;2.10;;;;;;;14.08;64.58;100143.58;106953;1284;74390;-59
2024/02/09 05:36:47;;;;;;;4.70;2.00;;;;;;;14.08;64.54;100141.91;107056;1284;58910;-59
2024/02/09 05:39:12;;;;;;;4.30;1.80;;;;;;;14.07;64.54;100143.60;107074;1285;58998;-59
2024/02/09 05:41:38;;;;;;;3.60;1.80;;;;;;;14.07;64.58;100137.61;107161;1284;58958;-59
2024/02/09 05:44:03;;;;;;;4.00;2.10;;;;;;;14.07;64.55;100128.92;106800;1285;59110;-59
2024/02/09 05:46:29;;;;;;;4.20;2.10;;;;;;;14.06;64.48;100122.71;107105;1284;73405;-60
2024/02/09 05:48:55;;;;;;;3.50;1.80;;;;;;;14.06;64.48;100126.33;106755;1285;59286;-59
2024/02/09 05:51:22;;;;;;;3.80;1.90;;;;;;;14.05;64.40;100125.41;107072;1284;58973;-59
2024/02/09 05:53:48;;;;;;;5.20;2.00;;;;;;;14.04;64.41;100127.01;107128;1284;59135;-60
2024/02/09 05:56:21;;;;;;;4.40;2.20;;;;;;;14.04;64.43;100122.80;106867;1284;58991;-60
2024/02/09 05:58:56;;;;;;;4.40;2.00;;;;;;;14.04;64.41;100122.09;106933;1284;75320;-59
2024/02/09 06:01:32;;;;;;;3.80;1.90;;;;;;;14.02;64.38;100121.41;106826;1284;73476;-60
2024/02/09 06:04:35;;;;;;;5.20;2.30;;;;;;;14.02;64.27;100117.81;106866;1284;61243;-60
2024/02/09 06:07:01;;;;;;;4.40;2.20;;;;;;;14.02;64.25;100121.52;106169;1292;60252;-61
2024/02/09 06:09:29;;;;;;;5.10;2.40;;;;;;;14.01;64.24;100124.40;105874;1292;59521;-60
2024/02/09 06:11:57;;;;;;;3.90;1.90;;;;;;;14.00;64.26;100126.86;106327;1291;74236;-59
2024/02/09 06:14:23;;;;;;;4.50;2.30;;;;;;;14.00;64.29;100130.65;106231;1292;72575;-60
2024/02/09 06:16:48;;;;;;;3.70;2.00;;;;;;;14.00;64.21;100123.54;106181;1291;59153;-60
2024/02/09 06:19:13;;;;;;;5.40;2.70;;;;;;;14.00;64.22;100123.06;106268;1291;59098;-61
2024/02/09 06:21:40;;;;;;;3.70;1.90;;;;;;;13.99;64.17;100127.68;106232;1291;59184;-60
2024/02/09 06:24:06;;;;;;;3.70;2.20;;;;;;;13.99;64.22;100130.45;106055;1294;59215;-61
2024/02/09 06:26:31;;;;;;;5.00;2.30;;;;;;;13.98;64.16;100129.59;106078;1294;59006;-59
2024/02/09 06:28:57;;;;;;;3.40;1.90;;;;;;;13.98;64.09;100126.52;106084;1294;60886;-59
2024/02/09 06:31:25;;;;;;;4.20;2.00;;;;;;;13.98;64.11;100121.27;105963;1295;59234;-59
2024/02/09 06:33:55;;;;;;;4.10;2.10;;;;;;;13.97;64.12;100113.84;106110;1294;73222;-59
2024/02/09 06:36:24;;;;;;;4.00;2.10;;;;;;;13.96;64.16;100111.02;105785;1295;72601;-59
2024/02/09 06:38:51;;;;;;;3.50;1.90;;;;;;;13.96;64.07;100111.64;106030;1293;60313;-60
2024/02/09 06:41:16;;;;;;;3.50;2.00;;;;;;;13.95;64.00;100113.22;106237;1292;58866;-61
2024/02/09 06:43:42;;;;;;;3.40;1.80;;;;;;;13.95;64.06;100121.41;106264;1289;59231;-61
2024/02/09 06:46:09;;;;;;;3.10;2.10;;;;;;;13.95;63.95;100124.01;106662;1287;59444;-61
2024/02/09 06:48:34;;;;;;;3.70;1.70;;;;;;;13.95;64.01;100124.23;106568;1287;59582;-61
2024/02/09 06:51:00;;;;;;;2.70;1.80;;;;;;;13.94;64.04;100127.55;106584;1287;59160;-60
2024/02/09 06:53:26;;;;;;;4.40;2.00;;;;;;;13.94;64.00;100127.45;106654;1287;59192;-60
2024/02/09 06:55:53;;;;;;;4.50;2.50;;;;;;;13.93;63.91;100123.61;106704;1287;59025;-59
2024/02/09 06:58:24;;;;;;;5.50;2.70;;;;;;;13.93;63.96;100119.27;106284;1287;72446;-61
2024/02/09 07:00:52;;;;;;;3.70;1.90;;;;;;;13.93;63.86;100122.52;106619;1288;60275;-60
2024/02/09 07:03:18;;;;;;;4.80;2.30;;;;;;;13.93;63.85;100119.70;106850;1285;60568;-60
2024/02/09 07:05:44;;;;;;;3.30;2.00;;;;;;;13.92;63.81;100116.75;106906;1284;59020;-60
2024/02/09 07:08:09;;;;;;;4.10;2.10;;;;;;;13.92;63.88;100108.08;106929;1284;59047;-60
2024/02/09 07:10:35;;;;;;;5.10;2.20;;;;;;;13.91;63.79;100103.53;106949;1284;59361;-60
2024/02/09 07:13:00;;;;;;;4.10;1.90;;;;;;;13.91;63.74;100099.15;106894;1284;58992;-61
2024/02/09 07:15:26;;;;;;;3.60;1.90;;;;;;;13.91;63.79;100101.16;106964;1284;59075;-60
2024/02/09 07:17:55;;;;;;;4.00;2.10;;;;;;;13.90;63.76;100098.89;106888;1284;75488;-60
2024/02/09 07:20:24;;;;;;;4.70;2.60;;;;;;;13.89;63.69;100091.42;106888;1284;71651;-60
2024/02/09 07:22:51;;;;;;;3.90;2.00;;;;;;;13.89;63.66;100079.08;106877;1284;60111;-59
2024/02/09 07:25:16;;;;;;;4.70;2.30;;;;;;;13.88;63.64;100072.74;106921;1284;58904;-61
2024/02/09 07:27:42;;;;;;;4.30;2.00;;;;;;;13.88;63.51;100068.41;106917;1284;59107;-60
2024/02/09 07:30:08;;;;;;;3.60;2.00;;;;;;;13.87;63.59;100063.12;106954;1284;59093;-60
2024/02/09 07:32:35;;;;;;;4.40;2.20;;;;;;;13.87;63.54;100060.46;106899;1284;59041;-61
2024/02/09 07:35:01;;;;;;;4.20;2.30;;;;;;;13.86;63.51;100057.95;106583;1285;59010;-60
2024/02/09 07:37:26;;;;;;;3.30;1.70;;;;;;;13.86;63.56;100049.50;106907;1284;59085;-59
2024/02/09 07:39:52;;;;;;;3.40;1.80;;;;;;;13.86;63.53;100051.67;106871;1285;59132;-61
2024/02/09 07:42:20;;;;;;;3.40;2.20;;;;;;;13.85;63.51;100047.45;106873;1284;72455;-59
2024/02/09 07:44:46;;;;;;;5.00;2.10;;;;;;;13.84;63.45;100043.61;106834;1284;61277;-60
2024/02/09 07:47:11;;;;;;;3.50;1.90;;;;;;;13.84;63.47;100038.47;106862;1285;59025;-59
2024/02/09 07:49:37;;;;;;;3.50;2.00;;;;;;;13.83;63.41;100030.53;106560;1285;59066;-60
2024/02/09 07:52:03;;;;;;;4.10;2.00;;;;;;;13.83;63.42;100027.59;106855;1285;59116;-60
2024/02/09 07:54:32;;;;;;;3.70;2.10;;;;;;;13.83;63.37;100026.41;106848;1284;59032;-58
2024/02/09 07:57:00;;;;;;;3.80;2.00;;;;;;;13.82;63.38;100023.71;106881;1284;58919;-58
2024/02/09 07:59:25;;;;;;;5.60;2.30;;;;;;;13.81;63.25;100022.91;106577;1285;60052;-57
2024/02/09 08:01:56;;;;;;;3.00;1.70;;;;;;;13.81;63.27;100018.58;106914;1284;59080;-58
2024/02/09 08:04:22;;;;;;;3.40;1.70;;;;;;;13.81;63.27;100018.64;106861;1285;74210;-60
2024/02/09 08:06:47;;;;;;;4.50;2.10;;;;;;;13.80;63.31;100014.37;106883;1284;59069;-58
2024/02/09 08:09:13;;;;;;;4.40;2.00;;;;;;;13.80;63.25;100014.43;106886;1284;59001;-59
2024/02/09 08:11:42;;;;;;;3.00;1.80;;;;;;;13.80;63.17;100011.08;106878;1285;59117;-57
2024/02/09 08:14:08;;;;;;;2.70;1.80;;;;;;;13.79;63.11;100012.92;106880;1284;59040;-58
2024/02/09 08:16:33;;;;;;;3.30;1.90;;;;;;;13.79;63.20;100013.89;106914;1284;59100;-58
2024/02/09 08:18:59;;;;;;;3.80;2.00;;;;;;;13.79;63.15;100010.05;106877;1284;59033;-58
2024/02/09 08:21:25;;;;;;;4.50;1.80;;;;;;;13.79;63.17;100011.20;106852;1285;59009;-58
2024/02/09 08:23:51;;;;;;;3.40;2.10;;;;;;;13.78;63.19;100014.89;106926;1284;59055;-58
2024/02/09 08:26:18;;;;;;;5.00;2.20;;;;;;;13.77;63.09;100014.64;106834;1285;59046;-58
2024/02/09 08:28:45;;;;;;;3.10;1.80;;;;;;;13.77;63.09;100007.72;106899;1284;59094;-58
2024/02/09 08:31:14;;;;;;;4.40;2.30;;;;;;;13.76;63.13;100005.98;106843;1285;59051;-59
2024/02/09 08:33:41;;;;;;;3.40;1.80;;;;;;;13.76;63.07;99999.54;106912;1284;60038;-59
2024/02/09 08:36:09;;;;;;;2.60;1.80;;;;;;;13.76;63.16;99999.05;106901;1284;59061;-59
2024/02/09 08:38:35;;;;;;;6.50;1.80;;;;;;;13.76;63.23;99996.73;106921;1284;75410;-59
2024/02/09 08:41:02;;;;;;;4.50;2.00;;;;;;;13.76;63.45;99995.64;106876;1284;59393;-59
2024/02/09 08:43:29;;;;;;;4.00;2.00;;;;;;;13.75;63.59;99989.88;106873;1284;73862;-59
2024/02/09 08:45:54;;;;;;;2.70;1.60;;;;;;;13.75;63.73;99988.19;106661;1285;59063;-59
2024/02/09 08:48:20;;;;;;;3.10;1.80;;;;;;;13.75;63.93;99983.79;106906;1284;59132;-58
2024/02/09 08:50:46;;;;;;;3.70;1.90;;;;;;;13.75;64.12;99980.98;106682;1285;59034;-60
2024/02/09 08:53:11;;;;;;;5.40;1.80;;;;;;;13.76;64.24;99980.70;106934;1284;59391;-59
2024/02/09 08:55:37;;;;;;;5.20;2.00;;;;;;;13.76;64.37;99975.98;106952;1284;59047;-61
2024/02/09 08:58:07;;;;;;;3.60;2.10;;;;;;;13.76;65.18;99969.96;106870;1284;60816;-60
2024/02/09 09:00:33;;;;;;;4.90;2.20;;;;;;;13.77;66.19;99965.09;106743;1285;74398;-61
2024/02/09 09:02:59;;;;;;;4.20;1.90;;;;;;;13.78;66.94;99958.82;106553;1284;59066;-61
2024/02/09 09:05:28;;;;;;;3.30;1.90;;;;;;;13.79;67.46;99949.42;106876;1284;59067;-62
2024/02/09 09:07:54;;;;;;;3.90;2.20;;;;;;;13.81;68.19;99942.87;106869;1284;61174;-62
2024/02/09 09:10:19;;;;;;;4.00;2.10;;;;;;;13.82;68.89;99934.88;106909;1284;59013;-61
2024/02/09 09:12:46;;;;;;;4.00;2.00;;;;;;;13.83;69.39;99931.84;106915;1284;58979;-62
2024/02/09 09:15:12;;;;;;;4.80;2.30;;;;;;;13.83;69.85;99932.33;106923;1284;59099;-60
2024/02/09 09:17:38;;;;;;;3.50;2.10;;;;;;;13.83;70.03;99929.23;106898;1284;60012;-61
2024/02/09 09:20:05;;;;;;;4.10;2.10;;;;;;;13.83;69.32;99922.41;106891;1284;59027;-61
2024/02/09 09:22:31;;;;;;;3.90;2.30;;;;;;;13.83;69.14;99917.38;106909;1284;59022;-61
2024/02/09 09:24:56;;;;;;;5.00;2.00;;;;;;;13.82;68.94;99912.29;106354;1285;363358;-60
2024/02/09 09:27:23;;;;;;;5.40;2.00;;;;;;;13.82;68.86;99902.38;106896;1284;59162;-60
2024/02/09 09:29:50;;;;;;;4.30;2.20;;;;;;;13.81;68.60;99895.63;106910;1284;59026;-61
2024/02/09 09:32:16;;;;;;;3.90;2.10;;;;;;;13.81;68.29;99888.00;106886;1284;58966;-61
2024/02/09 09:34:42;;;;;;;9.00;2.00;;;;;;;13.81;68.22;99886.37;106861;1284;59072;-61
2024/02/09 09:37:08;;;;;;;6.30;2.10;;;;;;;13.80;68.03;99879.23;106893;1284;59039;-60
2024/02/09 09:39:34;;;;;;;4.20;2.40;;;;;;;13.80;67.96;99868.69;106837;1284;72627;-61
2024/02/09 09:42:00;;;;;;;4.90;2.60;;;;;;;13.80;67.87;99863.27;106919;1284;59463;-61
2024/02/09 09:44:26;;;;;;;6.10;2.30;;;;;;;13.79;67.73;99855.46;106780;1285;59185;-61
2024/02/09 09:46:59;;;;;;;4.40;2.20;;;;;;;13.79;67.62;99854.38;106704;1285;59145;-61
2024/02/09 09:49:28;;;;;;;3.70;2.00;;;;;;;13.78;67.45;99853.71;106931;1285;74255;-60
2024/02/09 09:51:59;;;;;;;4.10;2.20;;;;;;;13.77;67.29;99855.77;106885;1284;72536;-61
2024/02/09 09:54:28;;;;;;;4.30;2.30;;;;;;;13.77;67.28;99857.08;106907;1284;60493;-60
2024/02/09 09:56:55;;;;;;;3.30;2.00;;;;;;;13.76;67.18;99860.34;106918;1284;61058;-60
2024/02/09 09:59:21;;;;;;;7.10;2.50;;;;;;;13.76;67.59;99855.91;106868;1285;75259;-61
2024/02/09 10:01:49;;;;;;;7.20;2.30;;;;;;;13.76;68.07;99853.20;106780;1285;59051;-60
2024/02/09 10:04:15;;;;;;;4.80;1.90;;;;;;;13.76;68.61;99853.89;106921;1284;73506;-60
2024/02/09 10:06:42;;;;;;;2.90;1.80;;;;;;;13.76;68.77;99851.13;106885;1284;60936;-61
2024/02/09 10:09:08;;;;;;;5.60;2.30;;;;;;;13.77;69.23;99846.20;106916;1284;59056;-58
2024/02/09 10:11:35;;;;;;;3.10;1.70;;;;;;;13.77;69.77;99839.10;106748;1285;59020;-58
2024/02/09 10:14:01;;;;;;;4.00;2.10;;;;;;;13.77;70.13;99836.29;106868;1285;74347;-58
2024/02/09 10:16:26;;;;;;;5.40;2.10;;;;;;;13.77;70.28;99835.03;106534;1285;59131;-60
2024/02/09 10:18:52;;;;;;;4.80;1.90;;;;;;;13.78;70.71;99833.35;106933;1284;59274;-60
2024/02/09 10:21:18;;;;;;;4.70;2.00;;;;;;;13.78;71.22;99835.07;107026;1284;58965;-61
2024/02/09 10:23:46;;;;;;;4.50;2.10;;;;;;;13.78;71.56;99830.13;106958;1285;59019;-59
2024/02/09 10:26:12;;;;;;;4.20;2.20;;;;;;;13.79;71.94;99830.77;106917;1284;73435;-60
2024/02/09 10:28:38;;;;;;;3.90;2.30;;;;;;;13.79;72.19;99835.27;106506;1285;59160;-60
2024/02/09 10:31:04;;;;;;;4.20;2.40;;;;;;;13.80;72.36;99833.14;106947;1284;59046;-61
2024/02/09 10:33:30;;;;;;;6.60;2.00;;;;;;;13.80;72.61;99826.00;106928;1284;59291;-60
2024/02/09 10:35:56;;;;;;;4.70;1.90;;;;;;;13.80;72.94;99818.41;106908;1284;59008;-60
2024/02/09 10:38:23;;;;;;;5.70;2.10;;;;;;;13.80;73.40;99811.15;106860;1285;59018;-61
2024/02/09 10:40:56;;;;;;;4.20;1.90;;;;;;;13.81;73.42;99808.86;106884;1284;60049;-60
2024/02/09 10:43:23;;;;;;;4.70;2.20;;;;;;;13.81;73.84;99809.62;106895;1284;61231;-60
2024/02/09 10:45:51;;;;;;;5.40;2.10;;;;;;;13.80;73.81;99808.05;106922;1284;75397;-60
2024/02/09 10:48:21;;;;;;;2.50;1.90;;;;;;;13.81;73.94;99803.44;106886;1284;73356;-60
2024/02/09 10:50:48;;;;;;;5.30;2.00;;;;;;;13.81;74.04;99791.45;106859;1284;72596;-61
2024/02/09 10:53:20;;;;;;;4.50;2.00;;;;;;;13.81;74.05;99785.50;106803;1285;59993;-60
2024/02/09 10:55:54;;;;;;;3.50;2.20;;;;;;;13.81;74.20;99789.61;106909;1284;60006;-62
2024/02/09 10:58:20;;;;;;;3.80;2.00;;;;;;;13.81;74.64;99787.59;106921;1284;75335;-61
2024/02/09 11:00:47;;;;;;;7.40;2.30;;;;;;;13.82;74.66;99780.13;106901;1284;59007;-60
2024/02/09 11:03:13;;;;;;;4.90;2.00;;;;;;;13.82;75.07;99778.27;106591;1285;72534;-61
2024/02/09 11:05:40;;;;;;;8.70;2.10;;;;;;;13.81;75.78;99770.17;106863;1285;59097;-61
2024/02/09 11:08:06;;;;;;;7.80;2.90;;;;;;;13.82;75.80;99767.23;106835;1285;60312;-60
2024/02/09 11:10:32;;;;;;;3.80;1.80;;;;;;;13.83;76.10;99768.04;106878;1284;58995;-61
2024/02/09 11:12:59;;;;;;;3.70;1.90;;;;;;;13.84;76.79;99769.63;106759;1285;59113;-61
2024/02/09 11:15:24;;;;;;;6.00;2.10;;;;;;;13.84;77.23;99768.80;106900;1284;58982;-61
2024/02/09 11:17:50;;;;;;;5.10;2.60;;;;;;;13.85;77.67;99771.06;106838;1284;59056;-61
2024/02/09 11:20:17;;;;;;;4.70;2.20;;;;;;;13.85;77.99;99770.86;106768;1287;59118;-60
2024/02/09 11:22:47;;;;;;;8.60;2.20;;;;;;;13.85;78.04;99774.21;106839;1284;59323;-60
2024/02/09 11:25:18;;;;;;;7.40;2.40;;;;;;;13.86;78.07;99775.55;106835;1285;73193;-60
2024/02/09 11:27:51;;;;;;;6.60;2.80;;;;;;;13.86;78.30;99779.20;106866;1284;73472;-61
2024/02/09 11:30:21;;;;;;;6.20;2.20;;;;;;;13.86;78.10;99783.02;106868;1284;60156;-60
2024/02/09 11:32:51;;;;;;;4.40;2.70;;;;;;;13.87;78.31;99780.79;106918;1284;60607;-61
2024/02/09 11:35:19;;;;;;;4.20;2.10;;;;;;;13.86;78.46;99780.30;106866;1285;75376;-61
2024/02/09 11:37:46;;;;;;;5.70;2.50;;;;;;;13.87;78.34;99775.69;106914;1285;74350;-60
2024/02/09 11:40:14;;;;;;;4.90;2.40;;;;;;;13.88;78.23;99772.53;106901;1284;59139;-60
2024/02/09 11:42:39;;;;;;;7.10;2.70;;;;;;;13.88;78.36;99771.83;106850;1285;61137;-60
2024/02/09 11:45:06;;;;;;;5.10;2.10;;;;;;;13.88;78.41;99779.36;106923;1284;59505;-60
2024/02/09 11:47:32;;;;;;;5.40;2.40;;;;;;;13.88;78.30;99788.29;106869;1284;59055;-60
2024/02/09 11:49:57;;;;;;;4.30;2.10;;;;;;;13.88;78.28;99786.88;106930;1284;59054;-62
2024/02/09 11:52:23;;;;;;;5.20;2.70;;;;;;;13.88;78.19;99786.82;106879;1284;59037;-61
2024/02/09 11:54:48;;;;;;;5.50;2.30;;;;;;;13.89;78.25;99784.44;106628;1285;59125;-60
2024/02/09 11:57:14;;;;;;;4.00;2.30;;;;;;;13.89;78.26;99783.90;106923;1284;59093;-60
2024/02/09 11:59:40;;;;;;;4.40;2.50;;;;;;;13.88;78.18;99786.27;106947;1284;58981;-60
2024/02/09 12:02:07;;;;;;;5.20;2.50;;;;;;;13.89;77.98;99785.29;106921;1284;59323;-60
2024/02/09 12:04:32;;;;;;;8.30;2.30;;;;;;;13.89;77.87;99787.68;106902;1284;59070;-61
2024/02/09 12:06:59;;;;;;;9.90;2.60;;;;;;;13.89;78.06;99798.58;106895;1284;59445;-60
2024/02/09 12:09:25;;;;;;;5.00;2.70;;;;;;;13.90;77.83;99801.27;106895;1284;59023;-60
2024/02/09 12:11:51;;;;;;;5.30;2.70;;;;;;;13.89;77.53;99802.52;106858;1284;59165;-61
2024/02/09 12:14:17;;;;;;;4.20;2.40;;;;;;;13.88;77.79;99796.02;106892;1284;59139;-61
2024/02/09 12:16:43;;;;;;;6.90;2.30;;;;;;;13.88;77.80;99794.52;106885;1284;59106;-60
2024/02/09 12:19:10;;;;;;;6.70;2.60;;;;;;;13.87;78.26;99795.04;106885;1284;59028;-61
2024/02/09 12:21:35;;;;;;;4.80;2.70;;;;;;;13.88;78.45;99797.67;106883;1284;59093;-60
2024/02/09 12:24:01;;;;;;;7.70;2.50;;;;;;;13.87;78.50;99790.31;106966;1284;59303;-60
2024/02/09 12:26:27;;;;;;;6.30;3.30;;;;;;;13.87;78.61;99794.80;106870;1285;60001;-60
2024/02/09 12:28:53;;;;;;;6.50;2.90;;;;;;;13.87;78.81;99798.44;106855;1284;59162;-60
2024/02/09 12:31:21;;;;;;;6.70;3.00;;;;;;;13.87;79.00;99808.41;106882;1284;59044;-60
2024/02/09 12:33:48;;;;;;;5.80;2.50;;;;;;;13.87;78.80;99811.50;106807;1285;74459;-60
2024/02/09 12:36:19;;;;;;;4.60;2.60;;;;;;;13.87;78.88;99813.13;106903;1284;73203;-60
2024/02/09 12:38:44;;;;;;;6.00;2.50;;;;;;;13.87;79.10;99803.70;106860;1285;61062;-60
2024/02/09 12:41:12;;;;;;;5.60;2.90;;;;;;;13.87;79.20;99799.37;106873;1284;59219;-60
2024/02/09 12:43:38;;;;;;;6.60;3.10;;;;;;;13.86;79.20;99796.24;106980;1284;75193;-60
2024/02/09 12:46:26;;;;;;;5.40;3.00;;;;;;;13.87;79.07;99794.01;106952;1284;59001;-60
2024/02/09 12:48:51;;;;;;;4.50;2.40;;;;;;;13.87;79.06;99794.55;106876;1284;73799;-60
2024/02/09 12:51:18;;;;;;;4.30;2.60;;;;;;;13.88;78.95;99786.30;106860;1284;59003;-59
2024/02/09 12:53:43;;;;;;;4.90;2.40;;;;;;;13.88;78.97;99789.48;106706;1285;58864;-60
2024/02/09 12:56:11;;;;;;;5.00;2.70;;;;;;;13.88;78.85;99794.30;106924;1284;59113;-60
2024/02/09 12:58:37;;;;;;;5.10;2.70;;;;;;;13.88;78.91;99800.48;106759;1285;59091;-60
2024/02/09 13:01:03;;;;;;;4.50;2.40;;;;;;;13.88;79.12;99806.23;106849;1284;59054;-60
2024/02/09 13:03:29;;;;;;;5.60;3.10;;;;;;;13.89;79.38;99808.92;106918;1284;58952;-60
2024/02/09 13:05:54;;;;;;;5.80;3.00;;;;;;;13.89;79.37;99806.65;106435;1288;59214;-60
2024/02/09 13:08:23;;;;;;;6.00;3.00;;;;;;;13.90;79.50;99806.41;106661;1287;59141;-60